MOL Beyond — VRPN8 — position and weather

sailwx.info

Track history (hours):
 
Tides and Currents Weather Stations Pressure Air Temp Water Temp Dewpoint Dewpoint Depression Visibility Wind Speed Wind Dir Waves Ship Positions

MOL Beyond

Last reported at 2017-Dec-09 02:21 UTC. Time now 2017-Dec-11 02:08 UTC.
Position N 36°50' W 075°49'.

Length 337 m; draft 12.1 m.

Type: Ship (hazmat cat A). MMSI: 477348300.

Date/timePositionNaut miles runAvg speedWind from/ knotsBaromVisibWave heightAir tempDewpointWater temp
2017-Dec-09 02:21N 36°50' W 075°49'3 8.9
2017-Dec-09 02:00N 36°52' W 075°52'510.4
2017-Dec-09 01:29N 36°56' W 075°57'510.7
2017-Dec-09 01:00N 36°58' W 076°03'1013.3
2017-Dec-09 00:14N 37°00' W 076°16'411.4
2017-Dec-08 23:50N 36°58' W 076°20'3 8.6
2017-Dec-08 23:30N 36°55' W 076°20'1 1.5
2017-Dec-08 23:00N 36°55' W 076°20'0 0.0
2017-Dec-08 22:31N 36°55' W 076°20'0 0.0
2017-Dec-08 22:00N 36°55' W 076°20'0 0.0
2017-Dec-08 21:30N 36°55' W 076°20'0 0.0
2017-Dec-08 21:00N 36°55' W 076°20'0 0.0
2017-Dec-08 20:30N 36°55' W 076°20'0 0.0
2017-Dec-08 20:00N 36°55' W 076°20'0 0.0
2017-Dec-08 19:30N 36°55' W 076°20'0 0.0
2017-Dec-08 19:00N 36°55' W 076°20'0 0.0
2017-Dec-08 18:30N 36°55' W 076°20'0 0.0
2017-Dec-08 18:00N 36°55' W 076°20'0 0.0
2017-Dec-08 17:30N 36°55' W 076°20'0 0.0
2017-Dec-08 17:00N 36°55' W 076°20'0 0.0
2017-Dec-08 16:30N 36°55' W 076°20'0 0.0
2017-Dec-08 16:00N 36°55' W 076°20'0 0.0
2017-Dec-08 15:30N 36°55' W 076°20'0 0.0
2017-Dec-08 15:00N 36°55' W 076°20'0 0.0
2017-Dec-08 14:30N 36°55' W 076°20'0 0.0
2017-Dec-08 14:00N 36°55' W 076°20'0 0.0
2017-Dec-08 13:30N 36°55' W 076°20'0 0.0
2017-Dec-08 13:00N 36°55' W 076°20'0 0.0
2017-Dec-08 12:30N 36°55' W 076°20'0 0.0
2017-Dec-08 12:00N 36°55' W 076°20'0 0.0
2017-Dec-08 11:30N 36°55' W 076°20'1 1.9
2017-Dec-08 11:00N 36°55' W 076°20'4 7.4
2017-Dec-08 10:30N 36°59' W 076°19'611.8
2017-Dec-08 10:00N 36°60' W 076°12'815.1
2017-Dec-08 09:30N 36°58' W 076°03'5 9.9
2017-Dec-08 09:00N 36°56' W 075°57'4 8.4
2017-Dec-08 08:30N 36°54' W 075°53'5 9.2
2017-Dec-08 07:59N 36°51' W 075°48'5 9.2
2017-Dec-08 07:23N 36°49' W 075°42'6 9.1
2017-Dec-08 06:45N 36°53' W 075°36'17710.8
2017-Dec-07 14:22N 39°31' W 073°55'411.8
2017-Dec-07 14:00N 39°36' W 073°54'611.8
2017-Dec-07 13:30N 39°41' W 073°53'611.6
2017-Dec-07 13:00N 39°47' W 073°51'611.4
2017-Dec-07 12:29N 39°53' W 073°51'911.5
2017-Dec-07 11:45N 40°01' W 073°50'1011.1
2017-Dec-07 10:49N 40°12' W 073°50'5 9.9
2017-Dec-07 10:16N 40°17' W 073°49'3 9.7
2017-Dec-07 10:00N 40°20' W 073°49'5 9.6
2017-Dec-07 09:30N 40°24' W 073°49'4 8.8
2017-Dec-07 09:00N 40°28' W 073°52'611.2
2017-Dec-07 08:30N 40°31' W 073°59'713.2
2017-Dec-07 08:00N 40°36' W 074°03'3 6.7
2017-Dec-07 07:30N 40°40' W 074°04'1 2.4
2017-Dec-07 07:00N 40°40' W 074°05'0 0.0
2017-Dec-07 06:30N 40°40' W 074°05'0 0.0
2017-Dec-07 06:00N 40°40' W 074°05'0 0.0
2017-Dec-07 05:30N 40°40' W 074°05'0 0.0
2017-Dec-07 05:00N 40°40' W 074°05'0 0.0
2017-Dec-07 04:30N 40°40' W 074°05'0 0.0
2017-Dec-07 04:00N 40°40' W 074°05'0 0.0
2017-Dec-07 03:27N 40°40' W 074°05'0 0.0
2017-Dec-07 03:00N 40°40' W 074°05'0 0.0
2017-Dec-07 02:30N 40°40' W 074°05'0 0.0
2017-Dec-07 01:57N 40°40' W 074°05'0 0.0
2017-Dec-07 01:30N 40°40' W 074°05'0 0.0
2017-Dec-07 00:57N 40°40' W 074°05'0 0.0
2017-Dec-07 00:27N 40°40' W 074°05'0 0.0
2017-Dec-06 23:57N 40°40' W 074°05'0 0.0
2017-Dec-06 23:27N 40°40' W 074°05'0 0.0
2017-Dec-06 23:00N 40°40' W 074°05'0 0.0
2017-Dec-06 22:30N 40°40' W 074°05'0 0.0
2017-Dec-06 22:00N 40°40' W 074°05'0 0.0
2017-Dec-06 21:30N 40°40' W 074°05'0 0.0
2017-Dec-06 21:00N 40°40' W 074°05'  
Track history (hours):
 
Tides and Currents Weather Stations Pressure Air Temp Water Temp Dewpoint Dewpoint Depression Visibility Wind Speed Wind Dir Waves Ship Positions

MOL Beyond

Last reported at 2017-Dec-09 02:21 UTC. Time now 2017-Dec-11 02:08 UTC.
Position N 36°50' W 075°49'.

Length 337 m; draft 12.1 m.

Type: Ship (hazmat cat A). MMSI: 477348300.

Date/timePositionNaut miles runAvg speedWind from/ knotsBaromVisibWave heightAir tempDewpointWater temp
2017-Dec-09 02:21N 36°50' W 075°49'3 8.9
2017-Dec-09 02:00N 36°52' W 075°52'510.4
2017-Dec-09 01:29N 36°56' W 075°57'510.7
2017-Dec-09 01:00N 36°58' W 076°03'1013.3
2017-Dec-09 00:14N 37°00' W 076°16'411.4
2017-Dec-08 23:50N 36°58' W 076°20'3 8.6
2017-Dec-08 23:30N 36°55' W 076°20'1 1.5
2017-Dec-08 23:00N 36°55' W 076°20'0 0.0
2017-Dec-08 22:31N 36°55' W 076°20'0 0.0
2017-Dec-08 22:00N 36°55' W 076°20'0 0.0
2017-Dec-08 21:30N 36°55' W 076°20'0 0.0
2017-Dec-08 21:00N 36°55' W 076°20'0 0.0
2017-Dec-08 20:30N 36°55' W 076°20'0 0.0
2017-Dec-08 20:00N 36°55' W 076°20'0 0.0
2017-Dec-08 19:30N 36°55' W 076°20'0 0.0
2017-Dec-08 19:00N 36°55' W 076°20'0 0.0
2017-Dec-08 18:30N 36°55' W 076°20'0 0.0
2017-Dec-08 18:00N 36°55' W 076°20'0 0.0
2017-Dec-08 17:30N 36°55' W 076°20'0 0.0
2017-Dec-08 17:00N 36°55' W 076°20'0 0.0
2017-Dec-08 16:30N 36°55' W 076°20'0 0.0
2017-Dec-08 16:00N 36°55' W 076°20'0 0.0
2017-Dec-08 15:30N 36°55' W 076°20'0 0.0
2017-Dec-08 15:00N 36°55' W 076°20'0 0.0
2017-Dec-08 14:30N 36°55' W 076°20'0 0.0
2017-Dec-08 14:00N 36°55' W 076°20'0 0.0
2017-Dec-08 13:30N 36°55' W 076°20'0 0.0
2017-Dec-08 13:00N 36°55' W 076°20'0 0.0
2017-Dec-08 12:30N 36°55' W 076°20'0 0.0
2017-Dec-08 12:00N 36°55' W 076°20'0 0.0
2017-Dec-08 11:30N 36°55' W 076°20'1 1.9
2017-Dec-08 11:00N 36°55' W 076°20'4 7.4
2017-Dec-08 10:30N 36°59' W 076°19'611.8
2017-Dec-08 10:00N 36°60' W 076°12'815.1
2017-Dec-08 09:30N 36°58' W 076°03'5 9.9
2017-Dec-08 09:00N 36°56' W 075°57'4 8.4
2017-Dec-08 08:30N 36°54' W 075°53'5 9.2
2017-Dec-08 07:59N 36°51' W 075°48'5 9.2
2017-Dec-08 07:23N 36°49' W 075°42'6 9.1
2017-Dec-08 06:45N 36°53' W 075°36'17710.8
2017-Dec-07 14:22N 39°31' W 073°55'411.8
2017-Dec-07 14:00N 39°36' W 073°54'611.8
2017-Dec-07 13:30N 39°41' W 073°53'611.6
2017-Dec-07 13:00N 39°47' W 073°51'611.4
2017-Dec-07 12:29N 39°53' W 073°51'911.5
2017-Dec-07 11:45N 40°01' W 073°50'1011.1
2017-Dec-07 10:49N 40°12' W 073°50'5 9.9
2017-Dec-07 10:16N 40°17' W 073°49'3 9.7
2017-Dec-07 10:00N 40°20' W 073°49'5 9.6
2017-Dec-07 09:30N 40°24' W 073°49'4 8.8
2017-Dec-07 09:00N 40°28' W 073°52'611.2
2017-Dec-07 08:30N 40°31' W 073°59'713.2
2017-Dec-07 08:00N 40°36' W 074°03'3 6.7
2017-Dec-07 07:30N 40°40' W 074°04'1 2.4
2017-Dec-07 07:00N 40°40' W 074°05'0 0.0
2017-Dec-07 06:30N 40°40' W 074°05'0 0.0
2017-Dec-07 06:00N 40°40' W 074°05'0 0.0
2017-Dec-07 05:30N 40°40' W 074°05'0 0.0
2017-Dec-07 05:00N 40°40' W 074°05'0 0.0
2017-Dec-07 04:30N 40°40' W 074°05'0 0.0
2017-Dec-07 04:00N 40°40' W 074°05'0 0.0
2017-Dec-07 03:27N 40°40' W 074°05'0 0.0
2017-Dec-07 03:00N 40°40' W 074°05'0 0.0
2017-Dec-07 02:30N 40°40' W 074°05'0 0.0
2017-Dec-07 01:57N 40°40' W 074°05'0 0.0
2017-Dec-07 01:30N 40°40' W 074°05'0 0.0
2017-Dec-07 00:57N 40°40' W 074°05'0 0.0
2017-Dec-07 00:27N 40°40' W 074°05'0 0.0
2017-Dec-06 23:57N 40°40' W 074°05'0 0.0
2017-Dec-06 23:27N 40°40' W 074°05'0 0.0
2017-Dec-06 23:00N 40°40' W 074°05'0 0.0
2017-Dec-06 22:30N 40°40' W 074°05'0 0.0
2017-Dec-06 22:00N 40°40' W 074°05'0 0.0
2017-Dec-06 21:30N 40°40' W 074°05'0 0.0
2017-Dec-06 21:00N 40°40' W 074°05'  

Dump ship's entire track history